Time;durP1;ratioP1;P1;durP2;ratioP2;P2;SDS_P1;SDS_P2;PMS_P1;PMS_P2;Temp;Humidity;BMP_temperature;BMP_pressure;BME280_temperature;BME280_humidity;BME280_pressure;Samples;Min_cycle;Max_cycle;Signal;HPM_P1;HPM_P2
2024/03/07 00:01:26;;;;;;;130.65;44.13;;;5.80;99.90;;;;;;5059447;28;20028;-51
2024/03/07 00:03:51;;;;;;;128.43;44.33;;;5.80;99.90;;;;;;5056562;28;20371;-52
2024/03/07 00:06:17;;;;;;;121.60;43.50;;;5.80;99.90;;;;;;5055846;28;20063;-51
2024/03/07 00:08:42;;;;;;;126.00;45.13;;;5.70;99.90;;;;;;5056863;28;20032;-48
2024/03/07 00:11:09;;;;;;;122.50;45.30;;;5.70;99.90;;;;;;5056922;28;20052;-48
2024/03/07 00:13:35;;;;;;;112.93;40.72;;;5.70;99.90;;;;;;5057081;28;20059;-47
2024/03/07 00:16:01;;;;;;;145.90;50.72;;;5.70;99.90;;;;;;5059056;28;20031;-47
2024/03/07 00:18:27;;;;;;;121.45;43.22;;;5.60;99.90;;;;;;5057155;28;20131;-47
2024/03/07 00:20:54;;;;;;;116.35;39.90;;;5.60;99.90;;;;;;5057303;28;20115;-51
2024/03/07 00:23:20;;;;;;;118.93;41.25;;;5.60;99.90;;;;;;5056576;28;20021;-47
2024/03/07 00:25:48;;;;;;;122.00;38.60;;;5.50;99.90;;;;;;5056879;28;20512;-48
2024/03/07 00:28:17;;;;;;;113.30;37.95;;;5.40;99.90;;;;;;5056309;28;20028;-49
2024/03/07 00:30:45;;;;;;;119.22;41.80;;;5.30;99.90;;;;;;5056556;28;20036;-48
2024/03/07 00:33:11;;;;;;;108.93;39.25;;;5.30;99.90;;;;;;5056872;28;20048;-52
2024/03/07 00:35:37;;;;;;;127.60;45.25;;;5.20;99.90;;;;;;5056599;28;20841;-47
2024/03/07 00:38:03;;;;;;;142.38;47.70;;;5.10;99.90;;;;;;5057202;28;20120;-51
2024/03/07 00:40:29;;;;;;;124.32;42.20;;;5.10;99.90;;;;;;5053751;28;20493;-50
2024/03/07 00:42:54;;;;;;;115.80;42.03;;;5.00;99.90;;;;;;5056495;28;20033;-49
2024/03/07 00:45:20;;;;;;;122.15;40.92;;;4.90;99.90;;;;;;5055698;28;20020;-52
2024/03/07 00:47:45;;;;;;;115.55;37.95;;;4.80;99.90;;;;;;5055842;28;20112;-49
2024/03/07 00:50:11;;;;;;;130.63;44.80;;;4.70;99.90;;;;;;5057032;28;20078;-49
2024/03/07 00:52:37;;;;;;;131.60;42.35;;;4.70;99.90;;;;;;5056106;28;20082;-52
2024/03/07 00:55:03;;;;;;;176.43;53.75;;;4.70;99.90;;;;;;5055043;28;20058;-51
2024/03/07 00:57:29;;;;;;;168.25;48.65;;;4.70;99.90;;;;;;5056205;28;20027;-47
2024/03/07 00:59:55;;;;;;;161.48;52.28;;;4.70;99.90;;;;;;5055650;28;20107;-46
2024/03/07 01:02:20;;;;;;;168.02;52.40;;;4.70;99.90;;;;;;5056460;28;20070;-46
2024/03/07 01:04:46;;;;;;;161.40;51.83;;;4.70;99.90;;;;;;5058543;28;20095;-46
2024/03/07 01:07:11;;;;;;;156.88;52.05;;;4.80;99.90;;;;;;5056247;28;20090;-51
2024/03/07 01:09:37;;;;;;;168.13;48.40;;;4.70;99.90;;;;;;5053478;28;20032;-51
2024/03/07 01:12:05;;;;;;;146.35;48.42;;;4.80;99.90;;;;;;5054722;28;20415;-51
2024/03/07 01:14:31;;;;;;;161.60;51.17;;;4.80;99.90;;;;;;5055865;28;20060;-50
2024/03/07 01:16:56;;;;;;;140.45;47.20;;;4.70;99.90;;;;;;5051494;28;20747;-53
2024/03/07 01:19:22;;;;;;;152.45;48.40;;;4.70;99.90;;;;;;5062048;28;20032;-49
2024/03/07 01:21:48;;;;;;;154.88;54.45;;;4.70;99.90;;;;;;5060285;28;20052;-48
2024/03/07 01:24:17;;;;;;;131.38;46.72;;;4.80;99.90;;;;;;5060176;28;20075;-48
2024/03/07 01:26:43;;;;;;;136.43;47.03;;;4.80;99.90;;;;;;5060512;28;20612;-47
2024/03/07 01:29:09;;;;;;;132.00;49.53;;;4.80;99.90;;;;;;5060183;28;20032;-49
2024/03/07 01:31:34;;;;;;;123.88;44.60;;;4.80;99.90;;;;;;5059770;28;20142;-52
2024/03/07 01:34:00;;;;;;;120.85;42.85;;;4.80;99.90;;;;;;5060659;28;20092;-55
2024/03/07 01:36:25;;;;;;;138.60;47.13;;;4.70;99.90;;;;;;5059599;28;20029;-47
2024/03/07 01:38:51;;;;;;;146.27;48.42;;;4.70;99.90;;;;;;5058831;28;20023;-48
2024/03/07 01:41:17;;;;;;;188.35;54.13;;;4.60;99.90;;;;;;5059806;28;20458;-46
2024/03/07 01:43:42;;;;;;;145.65;49.92;;;4.60;99.90;;;;;;5059677;28;20056;-46
2024/03/07 01:46:10;;;;;;;135.77;46.38;;;4.60;99.90;;;;;;5060671;28;20082;-48
2024/03/07 01:48:36;;;;;;;133.45;46.53;;;4.50;99.90;;;;;;5062177;28;20103;-51
2024/03/07 01:51:05;;;;;;;113.68;42.55;;;4.50;99.90;;;;;;5059645;28;20044;-51
2024/03/07 01:53:31;;;;;;;130.55;45.00;;;4.50;99.90;;;;;;5059731;28;20032;-45
2024/03/07 01:55:58;;;;;;;105.63;39.70;;;4.40;99.90;;;;;;5063910;28;20145;-50
2024/03/07 01:58:24;;;;;;;136.90;45.33;;;4.40;99.90;;;;;;5062475;28;20397;-46
2024/03/07 02:00:50;;;;;;;104.53;39.50;;;4.40;99.90;;;;;;5061724;28;20032;-48
2024/03/07 02:03:16;;;;;;;129.38;43.95;;;4.40;99.90;;;;;;5061808;28;20023;-47
2024/03/07 02:05:42;;;;;;;112.55;42.42;;;4.40;99.90;;;;;;5062333;28;20040;-50
2024/03/07 02:08:08;;;;;;;98.38;40.25;;;4.40;99.90;;;;;;5059180;28;20017;-47
2024/03/07 02:10:33;;;;;;;96.85;38.03;;;4.40;99.90;;;;;;5063631;28;20498;-47
2024/03/07 02:13:00;;;;;;;102.68;38.47;;;4.40;99.90;;;;;;5062187;28;20036;-48
2024/03/07 02:15:26;;;;;;;90.28;39.47;;;4.30;99.90;;;;;;5061530;28;20044;-46
2024/03/07 02:17:52;;;;;;;100.93;42.97;;;4.20;99.90;;;;;;5061760;28;20516;-47
2024/03/07 02:20:17;;;;;;;96.60;38.25;;;4.20;99.90;;;;;;5061713;28;20055;-49
2024/03/07 02:22:43;;;;;;;79.32;33.83;;;4.10;99.90;;;;;;5062605;28;20028;-47
2024/03/07 02:25:12;;;;;;;88.55;37.42;;;4.10;99.90;;;;;;5063393;28;20032;-48
2024/03/07 02:27:38;;;;;;;106.68;41.03;;;4.00;99.90;;;;;;5060878;28;20521;-52
2024/03/07 02:30:05;;;;;;;92.65;39.65;;;3.90;99.90;;;;;;5061783;28;20047;-48
2024/03/07 02:32:31;;;;;;;88.15;37.55;;;3.90;99.90;;;;;;5060189;28;20099;-49
2024/03/07 02:34:56;;;;;;;91.25;39.33;;;3.80;99.90;;;;;;5060682;28;20116;-47
2024/03/07 02:37:22;;;;;;;87.05;35.53;;;3.80;99.90;;;;;;5061651;28;20024;-50
2024/03/07 02:39:47;;;;;;;81.10;34.35;;;3.70;99.90;;;;;;5059576;28;20111;-47
2024/03/07 02:42:13;;;;;;;95.50;37.03;;;3.60;99.90;;;;;;5061093;28;20028;-46
2024/03/07 02:44:38;;;;;;;87.35;37.72;;;3.60;99.90;;;;;;5061657;28;20039;-48
2024/03/07 02:47:05;;;;;;;78.22;32.55;;;3.50;99.90;;;;;;5061094;28;20027;-48
2024/03/07 02:49:30;;;;;;;85.45;33.63;;;3.50;99.90;;;;;;5061049;28;20035;-47
2024/03/07 02:51:56;;;;;;;83.85;34.53;;;3.40;99.90;;;;;;5061212;28;20449;-50
2024/03/07 02:54:21;;;;;;;83.28;35.95;;;3.40;99.90;;;;;;5058569;28;20036;-47
2024/03/07 02:56:47;;;;;;;81.18;35.10;;;3.30;99.90;;;;;;5060688;28;20027;-46
2024/03/07 02:59:13;;;;;;;80.10;33.90;;;3.30;99.90;;;;;;5061295;28;20490;-46
2024/03/07 03:01:38;;;;;;;77.38;33.28;;;3.20;99.90;;;;;;5060010;28;20090;-47
2024/03/07 03:04:04;;;;;;;83.10;34.00;;;3.10;99.90;;;;;;5052556;28;20498;-50
2024/03/07 03:06:29;;;;;;;91.10;37.63;;;3.10;99.90;;;;;;5060007;28;20028;-46
2024/03/07 03:08:55;;;;;;;80.03;34.47;;;3.00;99.90;;;;;;5052736;28;20028;-47
2024/03/07 03:11:20;;;;;;;76.97;32.10;;;3.00;99.90;;;;;;5058343;28;20083;-49
2024/03/07 03:13:48;;;;;;;72.78;32.35;;;2.90;99.90;;;;;;5060995;28;20494;-48
2024/03/07 03:16:13;;;;;;;82.47;33.92;;;2.90;99.90;;;;;;5060795;28;20100;-46
2024/03/07 03:18:39;;;;;;;78.70;32.80;;;2.90;99.90;;;;;;5060436;28;20112;-47
2024/03/07 03:21:04;;;;;;;86.93;36.78;;;2.80;99.90;;;;;;5059595;28;20020;-46
2024/03/07 03:23:30;;;;;;;97.38;42.03;;;2.80;99.90;;;;;;5060628;28;20029;-49
2024/03/07 03:25:55;;;;;;;90.03;38.50;;;2.80;99.90;;;;;;5062328;28;20538;-48
2024/03/07 03:28:22;;;;;;;87.57;37.40;;;2.80;99.90;;;;;;5060584;28;20039;-50
2024/03/07 03:30:48;;;;;;;90.43;36.58;;;2.70;99.90;;;;;;5060392;28;20074;-45
2024/03/07 03:33:15;;;;;;;76.20;33.42;;;2.70;99.90;;;;;;5060075;28;20070;-50
2024/03/07 03:35:40;;;;;;;78.35;35.33;;;2.60;99.90;;;;;;5060119;28;20116;-47
2024/03/07 03:38:06;;;;;;;81.68;33.78;;;2.60;99.90;;;;;;5060448;28;20112;-47
2024/03/07 03:40:32;;;;;;;79.50;32.30;;;2.60;99.90;;;;;;5056635;28;20059;-47
2024/03/07 03:42:58;;;;;;;64.95;30.70;;;2.60;99.90;;;;;;5061725;28;20529;-46
2024/03/07 03:45:25;;;;;;;81.00;36.42;;;2.50;99.90;;;;;;5060422;28;20046;-48
2024/03/07 03:47:51;;;;;;;90.85;34.13;;;2.50;99.90;;;;;;5059890;28;20115;-48
2024/03/07 03:50:20;;;;;;;69.38;31.65;;;2.40;99.90;;;;;;5059781;28;20040;-47
2024/03/07 03:52:46;;;;;;;85.18;40.33;;;2.40;99.90;;;;;;5059892;28;20087;-46
2024/03/07 03:55:12;;;;;;;76.28;32.30;;;2.30;99.90;;;;;;5060073;28;20087;-48
2024/03/07 03:57:39;;;;;;;76.95;32.75;;;2.30;99.90;;;;;;5061645;28;20032;-47
2024/03/07 04:00:12;;;;;;;69.35;30.65;;;2.30;99.90;;;;;;5057948;28;20085;-47
2024/03/07 04:02:41;;;;;;;69.28;30.67;;;2.20;99.90;;;;;;5056795;28;20521;-45
2024/03/07 04:05:10;;;;;;;69.07;29.75;;;2.20;99.90;;;;;;5058054;28;20024;-49
2024/03/07 04:07:36;;;;;;;73.97;30.05;;;2.10;99.90;;;;;;5059825;28;20162;-50
2024/03/07 04:10:03;;;;;;;75.10;31.42;;;2.10;99.90;;;;;;5059583;28;20540;-47
2024/03/07 04:12:29;;;;;;;88.32;37.90;;;2.00;99.90;;;;;;5057758;28;20028;-47
2024/03/07 04:14:57;;;;;;;74.60;29.98;;;2.00;99.90;;;;;;5059222;28;20594;-45
2024/03/07 04:17:23;;;;;;;68.97;29.30;;;2.00;99.90;;;;;;5059946;28;20557;-49
2024/03/07 04:19:48;;;;;;;75.03;33.88;;;1.90;99.90;;;;;;5058856;28;20099;-48
2024/03/07 04:22:14;;;;;;;70.43;30.83;;;1.90;99.90;;;;;;5056271;28;20016;-45
2024/03/07 04:24:40;;;;;;;78.32;31.33;;;1.90;99.90;;;;;;5061316;28;20160;-46
2024/03/07 04:27:06;;;;;;;71.50;30.35;;;1.90;99.90;;;;;;5059785;28;20027;-48
2024/03/07 04:29:33;;;;;;;63.05;28.00;;;1.80;99.90;;;;;;5058236;28;20025;-51
2024/03/07 04:31:59;;;;;;;60.67;27.80;;;1.70;99.90;;;;;;5059450;28;20021;-50
2024/03/07 04:34:25;;;;;;;62.17;27.67;;;1.70;99.90;;;;;;5059491;28;20050;-49
2024/03/07 04:36:51;;;;;;;68.90;30.17;;;1.70;99.90;;;;;;5059380;28;20107;-50
2024/03/07 04:39:24;;;;;;;67.75;29.65;;;1.60;99.90;;;;;;5056176;28;20096;-46
2024/03/07 04:41:53;;;;;;;70.20;30.45;;;1.60;99.90;;;;;;5059630;28;20031;-49
2024/03/07 04:44:22;;;;;;;67.88;30.42;;;1.50;99.90;;;;;;5056882;28;20117;-46
2024/03/07 04:46:49;;;;;;;60.25;28.10;;;1.50;99.90;;;;;;5059003;28;20024;-49
2024/03/07 04:49:15;;;;;;;68.57;30.95;;;1.50;99.90;;;;;;5058948;28;20522;-48
2024/03/07 04:51:40;;;;;;;64.15;29.92;;;1.50;99.90;;;;;;5058512;28;20040;-45
2024/03/07 04:54:06;;;;;;;69.80;31.80;;;1.40;99.90;;;;;;5059326;28;20052;-45
2024/03/07 04:56:32;;;;;;;70.30;31.73;;;1.40;99.90;;;;;;5058875;28;20035;-47
2024/03/07 04:58:57;;;;;;;74.18;32.35;;;1.40;99.90;;;;;;5058836;28;20550;-46
2024/03/07 05:01:23;;;;;;;69.18;29.27;;;1.40;99.90;;;;;;5060730;28;20033;-49
2024/03/07 05:03:48;;;;;;;65.85;30.80;;;1.40;99.90;;;;;;5059250;28;20185;-47
2024/03/07 05:06:16;;;;;;;69.88;30.23;;;1.40;99.90;;;;;;5054541;28;20028;-46
2024/03/07 05:08:41;;;;;;;69.55;32.25;;;1.30;99.90;;;;;;5058954;28;20087;-45
2024/03/07 05:11:07;;;;;;;60.65;28.60;;;1.30;99.90;;;;;;5058707;28;20633;-48
2024/03/07 05:13:32;;;;;;;61.85;29.38;;;1.30;99.90;;;;;;5059029;28;20060;-47
2024/03/07 05:15:58;;;;;;;53.63;24.95;;;1.20;99.90;;;;;;5056267;28;20025;-47
2024/03/07 05:18:23;;;;;;;50.22;25.08;;;1.20;99.90;;;;;;5060512;28;20481;-48
2024/03/07 05:20:49;;;;;;;49.78;22.67;;;1.10;99.90;;;;;;5058757;28;20032;-46
2024/03/07 05:23:15;;;;;;;50.10;22.50;;;1.10;99.90;;;;;;5058390;28;20024;-45
2024/03/07 05:25:40;;;;;;;48.83;21.73;;;1.00;99.90;;;;;;5051772;28;20020;-49
2024/03/07 05:28:06;;;;;;;58.17;24.17;;;1.00;99.90;;;;;;5057967;28;20036;-47
2024/03/07 05:30:33;;;;;;;51.92;23.58;;;0.90;99.90;;;;;;5060501;28;20474;-49
2024/03/07 05:33:00;;;;;;;45.70;22.05;;;1.00;99.90;;;;;;5056281;28;20481;-47
2024/03/07 05:35:29;;;;;;;49.45;22.88;;;0.90;99.90;;;;;;5058697;28;20153;-45
2024/03/07 05:37:56;;;;;;;54.03;22.63;;;0.90;99.90;;;;;;5058908;28;20024;-48
2024/03/07 05:40:22;;;;;;;56.08;24.95;;;0.90;99.90;;;;;;5051148;28;20020;-46
2024/03/07 05:42:47;;;;;;;59.30;26.55;;;0.80;99.90;;;;;;5053404;28;20044;-45
2024/03/07 05:45:14;;;;;;;52.53;25.13;;;0.80;99.90;;;;;;5051104;28;20035;-46
2024/03/07 05:47:40;;;;;;;52.42;23.17;;;0.90;99.90;;;;;;5058668;28;20061;-50
2024/03/07 05:50:07;;;;;;;48.30;23.23;;;0.90;99.90;;;;;;5060142;28;20028;-49
2024/03/07 05:52:32;;;;;;;62.75;28.80;;;0.80;99.90;;;;;;5058615;28;20166;-45
2024/03/07 05:54:58;;;;;;;49.92;25.17;;;0.80;99.90;;;;;;5058781;28;20119;-45
2024/03/07 05:57:23;;;;;;;48.22;23.58;;;0.90;99.90;;;;;;5058265;28;20032;-49
2024/03/07 05:59:49;;;;;;;54.90;24.50;;;0.90;99.90;;;;;;5058228;28;20084;-46
2024/03/07 06:02:15;;;;;;;56.67;24.08;;;0.90;99.90;;;;;;5055571;28;20040;-47
2024/03/07 06:04:43;;;;;;;46.90;21.58;;;0.90;99.90;;;;;;5063831;28;20032;-47
2024/03/07 06:07:10;;;;;;;51.83;24.80;;;0.90;99.90;;;;;;5063286;28;20482;-47
2024/03/07 06:09:36;;;;;;;41.92;21.52;;;0.90;99.90;;;;;;5061476;28;20390;-48
2024/03/07 06:12:04;;;;;;;44.10;21.45;;;1.00;99.90;;;;;;5057972;28;20041;-47
2024/03/07 06:14:30;;;;;;;41.75;20.00;;;1.00;99.90;;;;;;5060744;28;20667;-46
2024/03/07 06:16:57;;;;;;;41.42;20.35;;;1.00;99.90;;;;;;5061046;28;20028;-46
2024/03/07 06:19:23;;;;;;;42.78;20.38;;;1.10;99.90;;;;;;5061412;28;20029;-47
2024/03/07 06:21:49;;;;;;;44.53;20.65;;;1.20;99.90;;;;;;5056921;28;20033;-45
2024/03/07 06:24:15;;;;;;;52.25;24.58;;;1.40;99.90;;;;;;5063677;28;20017;-46
2024/03/07 06:29:11;;;;;;;44.40;21.33;;;2.10;99.90;;;;;;5061487;28;20161;-48
2024/03/07 06:31:36;;;;;;;49.90;23.08;;;2.50;99.90;;;;;;5061730;28;20115;-47
2024/03/07 06:34:02;;;;;;;39.72;21.33;;;2.80;99.90;;;;;;5061523;28;20100;-50
2024/03/07 06:36:28;;;;;;;45.95;23.00;;;3.30;99.90;;;;;;5061124;28;20105;-49
2024/03/07 06:38:54;;;;;;;46.80;23.33;;;3.60;99.90;;;;;;5059829;28;20046;-47
2024/03/07 06:41:19;;;;;;;40.28;21.38;;;3.80;99.90;;;;;;5062966;28;20058;-50
2024/03/07 06:43:45;;;;;;;41.33;20.73;;;4.10;99.90;;;;;;5061628;28;20029;-48
2024/03/07 06:46:12;;;;;;;37.60;20.48;;;4.40;99.90;;;;;;5060960;28;20487;-51
2024/03/07 06:48:40;;;;;;;41.85;19.90;;;4.70;99.90;;;;;;5061264;28;20025;-49
2024/03/07 06:51:05;;;;;;;42.85;20.23;;;5.00;99.90;;;;;;5061279;28;20115;-47
2024/03/07 06:53:31;;;;;;;37.33;19.77;;;5.10;99.90;;;;;;5060727;28;20107;-45
2024/03/07 06:55:57;;;;;;;36.67;20.17;;;5.40;99.90;;;;;;5063347;28;20028;-48
2024/03/07 06:58:22;;;;;;;33.75;18.08;;;5.70;99.90;;;;;;5060893;28;20086;-49
2024/03/07 07:00:51;;;;;;;34.85;18.63;;;5.90;99.90;;;;;;5060088;28;20067;-44
2024/03/07 07:03:19;;;;;;;33.30;18.05;;;6.10;99.90;;;;;;5060958;28;20416;-46
2024/03/07 07:05:45;;;;;;;33.85;18.42;;;6.20;99.90;;;;;;5060831;28;20528;-46
2024/03/07 07:08:10;;;;;;;29.27;17.13;;;6.20;98.90;;;;;;5060920;28;20029;-46
2024/03/07 07:10:36;;;;;;;30.33;17.50;;;6.40;97.80;;;;;;5060588;28;20109;-46
2024/03/07 07:13:04;;;;;;;28.35;16.80;;;6.50;93.60;;;;;;5062062;28;20025;-45
2024/03/07 07:15:30;;;;;;;29.30;16.77;;;6.60;93.70;;;;;;5062414;28;20448;-45
2024/03/07 07:17:55;;;;;;;29.77;16.25;;;6.80;93.80;;;;;;5060653;28;20113;-48
2024/03/07 07:20:23;;;;;;;27.50;14.93;;;7.00;92.90;;;;;;5060734;28;20028;-45
2024/03/07 07:22:49;;;;;;;32.53;17.10;;;7.00;91.70;;;;;;5060232;28;20040;-45
2024/03/07 07:25:16;;;;;;;28.92;16.58;;;7.20;91.60;;;;;;5060496;28;20036;-47
2024/03/07 07:27:49;;;;;;;24.45;16.38;;;7.20;89.30;;;;;;5060736;28;20081;-46
2024/03/07 07:30:17;;;;;;;30.17;16.00;;;7.30;88.10;;;;;;5059001;28;20029;-46
2024/03/07 07:32:43;;;;;;;24.05;14.70;;;7.30;85.20;;;;;;5060183;28;20036;-46
2024/03/07 07:35:12;;;;;;;28.90;16.98;;;7.50;85.30;;;;;;5060093;28;20024;-45
2024/03/07 07:37:42;;;;;;;31.42;16.80;;;7.60;85.20;;;;;;5062231;28;20055;-45
2024/03/07 07:40:14;;;;;;;28.52;16.13;;;7.70;83.90;;;;;;5056653;28;20032;-46
2024/03/07 07:42:41;;;;;;;29.10;14.80;;;7.80;83.50;;;;;;5056860;28;20029;-48
2024/03/07 07:45:12;;;;;;;28.70;15.43;;;7.90;82.50;;;;;;5062304;28;20020;-47
2024/03/07 07:47:58;;;;;;;32.75;16.58;;;7.90;81.10;;;;;;5057373;28;20032;-46
2024/03/07 07:50:24;;;;;;;24.77;15.48;;;7.80;76.50;;;;;;5058799;28;20036;-46
2024/03/07 07:52:53;;;;;;;29.70;16.33;;;8.00;79.10;;;;;;5055753;28;20025;-46
2024/03/07 07:55:19;;;;;;;33.13;17.45;;;8.30;79.80;;;;;;5059996;28;20102;-46
2024/03/07 07:57:46;;;;;;;26.30;16.52;;;8.10;74.20;;;;;;5059879;28;20028;-47
2024/03/07 08:00:21;;;;;;;27.45;15.93;;;8.30;74.80;;;;;;5061659;28;20024;-45
2024/03/07 08:02:48;;;;;;;29.88;17.92;;;8.40;76.30;;;;;;5056858;28;20580;-48
2024/03/07 08:05:17;;;;;;;32.58;17.48;;;8.30;74.70;;;;;;5059576;28;20023;-47
2024/03/07 08:07:43;;;;;;;23.90;14.90;;;8.30;72.70;;;;;;5065594;28;20099;-49
2024/03/07 08:10:09;;;;;;;27.00;15.93;;;8.40;73.80;;;;;;5060342;28;20147;-46
2024/03/07 08:12:36;;;;;;;22.05;14.48;;;8.40;72.30;;;;;;5059515;28;20032;-47
2024/03/07 08:15:03;;;;;;;27.80;15.90;;;8.50;72.30;;;;;;5059501;28;20023;-45
2024/03/07 08:17:29;;;;;;;28.25;15.35;;;8.40;71.00;;;;;;5058618;28;20033;-47
2024/03/07 08:19:55;;;;;;;29.00;16.02;;;8.50;71.10;;;;;;5058838;28;20031;-47
2024/03/07 08:22:20;;;;;;;23.63;14.23;;;8.50;70.40;;;;;;5059215;28;20012;-46
2024/03/07 08:24:46;;;;;;;25.95;14.35;;;8.60;71.30;;;;;;5060486;28;20044;-46
2024/03/07 08:27:11;;;;;;;23.08;14.10;;;8.70;70.70;;;;;;5059004;28;20028;-45
2024/03/07 08:29:37;;;;;;;21.83;13.25;;;8.90;71.40;;;;;;5058749;28;20033;-45
2024/03/07 08:32:02;;;;;;;25.98;16.10;;;9.00;71.00;;;;;;5059111;28;20027;-45
2024/03/07 08:34:28;;;;;;;25.00;14.30;;;9.10;69.40;;;;;;5059053;28;20017;-47
2024/03/07 08:36:53;;;;;;;25.52;14.98;;;9.20;68.90;;;;;;5057841;28;20063;-45
2024/03/07 08:39:19;;;;;;;25.77;14.38;;;9.20;67.80;;;;;;5052278;28;20021;-45
2024/03/07 08:41:46;;;;;;;22.50;13.90;;;9.10;64.50;;;;;;5058999;28;20367;-46
2024/03/07 08:44:13;;;;;;;27.08;14.60;;;9.20;67.30;;;;;;5056391;28;20029;-46
2024/03/07 08:46:38;;;;;;;26.55;15.30;;;9.10;66.90;;;;;;5057310;28;20031;-47
2024/03/07 08:49:05;;;;;;;19.83;11.93;;;9.20;64.60;;;;;;5058924;28;20021;-46
2024/03/07 08:51:30;;;;;;;23.58;12.68;;;9.30;66.90;;;;;;5058693;28;20018;-45
2024/03/07 08:53:56;;;;;;;22.05;12.70;;;9.50;67.50;;;;;;5060977;28;20033;-46
2024/03/07 08:56:22;;;;;;;22.77;14.20;;;9.80;68.80;;;;;;5058734;28;20028;-47
2024/03/07 08:58:48;;;;;;;23.02;15.18;;;9.90;68.10;;;;;;5058618;28;20534;-47
2024/03/07 09:01:13;;;;;;;20.15;13.40;;;9.80;64.40;;;;;;5058917;28;20394;-48
2024/03/07 09:03:39;;;;;;;23.77;13.02;;;9.80;64.30;;;;;;5058331;28;20112;-46
2024/03/07 09:06:05;;;;;;;20.10;13.13;;;9.70;62.60;;;;;;5058729;28;20021;-45
2024/03/07 09:08:31;;;;;;;21.35;13.00;;;9.80;61.40;;;;;;5060393;28;20123;-45
2024/03/07 09:10:57;;;;;;;22.42;13.48;;;9.80;60.50;;;;;;5058314;28;20040;-45
2024/03/07 09:13:23;;;;;;;21.05;13.57;;;9.60;60.20;;;;;;5058648;28;20028;-47
2024/03/07 09:15:48;;;;;;;21.98;13.90;;;9.70;61.60;;;;;;5058489;28;20033;-47
2024/03/07 09:18:14;;;;;;;16.90;12.07;;;9.70;61.60;;;;;;5058581;28;20033;-45
2024/03/07 09:20:40;;;;;;;20.67;14.95;;;9.80;63.10;;;;;;5058345;28;20033;-45
2024/03/07 09:23:06;;;;;;;23.05;14.95;;;9.80;60.70;;;;;;5060892;28;20381;-45
2024/03/07 09:25:34;;;;;;;23.88;14.70;;;9.90;59.90;;;;;;5058436;28;20111;-47
2024/03/07 09:28:00;;;;;;;25.00;14.82;;;9.80;57.80;;;;;;5058567;28;20020;-45
2024/03/07 09:30:27;;;;;;;25.55;15.30;;;9.70;55.80;;;;;;5058143;28;20149;-45
2024/03/07 09:32:54;;;;;;;25.08;16.30;;;9.70;56.30;;;;;;5058253;28;20544;-46
2024/03/07 09:35:20;;;;;;;29.75;17.52;;;9.60;55.00;;;;;;5058471;28;20031;-45
2024/03/07 09:37:46;;;;;;;29.30;18.50;;;9.40;53.90;;;;;;5060948;28;20021;-46
2024/03/07 09:40:11;;;;;;;27.70;17.45;;;9.40;55.40;;;;;;5052496;28;20025;-45
2024/03/07 09:42:47;;;;;;;26.58;16.55;;;9.50;56.80;;;;;;5064122;28;20035;-45
2024/03/07 09:45:16;;;;;;;22.38;14.63;;;9.60;57.30;;;;;;5064202;28;20013;-45
2024/03/07 09:47:43;;;;;;;32.58;18.05;;;9.60;57.90;;;;;;5060354;28;20074;-45
2024/03/07 09:50:09;;;;;;;29.73;18.55;;;9.70;57.60;;;;;;5060081;28;20028;-45
2024/03/07 09:52:35;;;;;;;26.20;16.45;;;9.80;55.70;;;;;;5062000;28;20017;-47
2024/03/07 09:55:02;;;;;;;23.13;15.65;;;9.80;53.00;;;;;;5062138;28;20013;-44
2024/03/07 09:57:32;;;;;;;23.50;14.27;;;9.70;51.10;;;;;;5062129;28;20035;-46
2024/03/07 09:59:59;;;;;;;24.67;14.57;;;9.70;51.80;;;;;;5061948;28;20063;-47
2024/03/07 10:02:26;;;;;;;21.50;13.50;;;9.60;53.00;;;;;;5061736;28;20619;-47
2024/03/07 10:04:54;;;;;;;23.27;14.73;;;9.80;53.70;;;;;;5062222;28;20045;-46
2024/03/07 10:07:20;;;;;;;24.83;15.10;;;9.90;50.50;;;;;;5061967;28;20108;-46
2024/03/07 10:09:47;;;;;;;26.95;15.48;;;9.80;49.20;;;;;;5063112;28;20107;-45
2024/03/07 10:12:12;;;;;;;29.58;16.65;;;9.70;48.00;;;;;;5061959;28;20028;-47
2024/03/07 10:14:51;;;;;;;24.30;15.93;;;9.60;47.40;;;;;;5061615;28;20040;-47
2024/03/07 10:17:18;;;;;;;24.02;15.40;;;9.50;48.10;;;;;;5059968;28;20016;-46
2024/03/07 10:19:47;;;;;;;22.88;13.57;;;9.40;47.90;;;;;;5059229;28;20394;-45
2024/03/07 10:22:14;;;;;;;24.85;14.35;;;9.20;46.50;;;;;;5061498;28;20025;-46
2024/03/07 10:24:40;;;;;;;33.25;16.92;;;8.90;46.00;;;;;;5062036;28;20029;-48
2024/03/07 10:27:05;;;;;;;22.05;13.35;;;8.80;46.10;;;;;;5061079;28;20036;-44
2024/03/07 10:29:31;;;;;;;28.48;16.42;;;8.60;45.90;;;;;;5061640;28;20065;-45
2024/03/07 10:31:57;;;;;;;21.77;14.15;;;8.50;46.80;;;;;;5061100;28;20406;-47
2024/03/07 10:34:23;;;;;;;25.95;14.25;;;8.20;47.20;;;;;;5062137;28;20020;-46
2024/03/07 10:36:49;;;;;;;27.85;15.48;;;7.90;47.80;;;;;;5062951;28;20024;-46
2024/03/07 10:39:14;;;;;;;26.75;14.90;;;7.80;49.20;;;;;;5046425;28;20036;-48
2024/03/07 10:41:48;;;;;;;24.17;14.48;;;7.70;48.80;;;;;;5053109;28;20076;-46
2024/03/07 10:44:19;;;;;;;27.48;15.95;;;7.70;49.00;;;;;;5055362;28;20036;-47
2024/03/07 10:46:52;;;;;;;26.25;15.40;;;7.60;49.00;;;;;;5055628;28;20060;-48
2024/03/07 10:49:23;;;;;;;30.13;15.75;;;7.50;49.30;;;;;;5056071;28;20507;-46
2024/03/07 10:52:03;;;;;;;26.10;15.45;;;7.50;50.50;;;;;;5056440;28;20047;-47
2024/03/07 10:54:46;;;;;;;25.77;15.32;;;7.50;49.20;;;;;;5054328;28;20049;-45
2024/03/07 10:57:26;;;;;;;25.85;14.50;;;7.50;50.30;;;;;;5054931;28;20024;-45
2024/03/07 10:59:58;;;;;;;31.52;14.57;;;7.50;49.70;;;;;;5054818;28;20387;-49
2024/03/07 11:02:27;;;;;;;24.25;14.77;;;7.40;49.20;;;;;;5060995;28;20971;-46
2024/03/07 11:04:53;;;;;;;24.48;15.13;;;7.30;48.60;;;;;;5058331;28;20033;-51
2024/03/07 11:07:23;;;;;;;26.42;13.70;;;7.20;49.30;;;;;;5059807;28;20025;-48
2024/03/07 11:09:52;;;;;;;28.38;15.80;;;7.20;49.10;;;;;;5057080;28;20043;-45
2024/03/07 11:12:28;;;;;;;28.35;16.13;;;7.10;48.90;;;;;;5052386;28;20025;-46
2024/03/07 11:14:55;;;;;;;;;;;7.10;49.20;;;;;;5052893;28;20025;-46
2024/03/07 11:17:22;;;;;;;27.23;15.65;;;7.00;49.50;;;;;;5054699;28;20416;-45
2024/03/07 11:19:48;;;;;;;32.53;15.25;;;7.00;48.30;;;;;;5058366;28;20038;-45
2024/03/07 11:22:29;;;;;;;30.05;16.77;;;7.00;48.80;;;;;;5056299;28;20016;-49
2024/03/07 11:25:08;;;;;;;28.75;15.65;;;7.00;48.40;;;;;;5055697;28;20025;-46
2024/03/07 11:27:38;;;;;;;25.75;14.98;;;7.10;48.00;;;;;;5055127;28;20029;-45
2024/03/07 11:30:07;;;;;;;27.52;15.73;;;7.10;48.20;;;;;;5054302;28;20021;-44
2024/03/07 11:32:36;;;;;;;27.80;15.75;;;7.10;49.30;;;;;;5055899;28;20459;-46
2024/03/07 11:35:15;;;;;;;30.08;16.73;;;7.10;48.70;;;;;;5060318;28;20062;-47
2024/03/07 11:37:47;;;;;;;28.98;15.73;;;7.20;49.10;;;;;;5058138;28;20020;-45
2024/03/07 11:40:22;;;;;;;29.15;16.70;;;7.20;48.10;;;;;;5053189;28;20043;-46
2024/03/07 11:42:51;;;;;;;30.45;16.58;;;7.20;47.90;;;;;;5058317;28;20039;-46
2024/03/07 11:45:29;;;;;;;29.13;16.25;;;7.20;47.10;;;;;;5060179;28;20042;-45
2024/03/07 11:48:06;;;;;;;32.40;18.08;;;7.10;47.70;;;;;;5059962;28;20021;-46
2024/03/07 11:50:39;;;;;;;25.88;16.48;;;7.20;47.30;;;;;;5059523;28;20369;-47
2024/03/07 11:53:06;;;;;;;32.60;16.75;;;7.20;45.50;;;;;;5059503;28;20378;-44
2024/03/07 11:55:45;;;;;;;26.67;16.45;;;7.20;44.30;;;;;;5059899;28;20033;-46
2024/03/07 11:58:17;;;;;;;33.58;17.58;;;7.20;43.50;;;;;;5059267;28;20534;-44
2024/03/07 12:00:44;;;;;;;26.98;16.75;;;7.20;43.60;;;;;;5059558;28;20174;-48
2024/03/07 12:03:16;;;;;;;28.98;16.73;;;7.20;43.90;;;;;;5059667;28;20029;-47
2024/03/07 12:05:46;;;;;;;26.35;15.50;;;7.30;42.70;;;;;;5059504;28;20070;-45
2024/03/07 12:08:12;;;;;;;30.23;16.20;;;7.20;43.10;;;;;;5059564;28;20562;-46
2024/03/07 12:10:38;;;;;;;28.20;15.75;;;7.20;42.30;;;;;;5055000;28;20212;-47
2024/03/07 12:13:05;;;;;;;28.63;15.88;;;7.10;41.20;;;;;;5054211;28;20498;-48
2024/03/07 12:15:33;;;;;;;26.83;14.27;;;7.10;41.10;;;;;;5053281;28;20333;-45
2024/03/07 12:18:01;;;;;;;28.15;16.55;;;7.10;41.90;;;;;;5053234;28;20024;-46
2024/03/07 12:20:33;;;;;;;25.90;14.43;;;7.10;41.30;;;;;;5051298;28;20483;-45
2024/03/07 12:23:03;;;;;;;30.73;16.05;;;7.10;41.80;;;;;;5056664;28;20028;-45
2024/03/07 12:25:32;;;;;;;31.63;16.42;;;7.10;41.50;;;;;;5054870;28;20028;-48
2024/03/07 12:28:05;;;;;;;26.50;15.20;;;7.10;40.90;;;;;;5053141;28;20019;-45
2024/03/07 12:30:35;;;;;;;29.70;15.02;;;7.10;41.00;;;;;;5057671;28;20032;-47
2024/03/07 12:33:07;;;;;;;25.63;14.63;;;7.10;40.10;;;;;;5055314;28;20560;-47
2024/03/07 12:35:32;;;;;;;26.65;15.70;;;7.10;40.70;;;;;;5053426;28;20032;-47
2024/03/07 12:37:59;;;;;;;27.98;15.13;;;7.10;40.60;;;;;;5054849;28;20024;-46